Time;durP1;ratioP1;P1;durP2;ratioP2;P2;SDS_P1;SDS_P2;PMS_P1;PMS_P2;Temp;Humidity;BMP_temperature;BMP_pressure;BME280_temperature;BME280_humidity;BME280_pressure;Samples;Min_cycle;Max_cycle;Signal;HPM_P1;HPM_P2
2021/04/29 00:00:12;;;;;;;18.57;9.70;;;;;;;16.20;39.56;99975.38;5105063;28;20500;-50
2021/04/29 00:02:38;;;;;;;14.20;8.00;;;;;;;16.37;39.44;99977.22;5107070;28;20488;-52
2021/04/29 00:05:07;;;;;;;16.23;8.60;;;;;;;16.06;40.22;99973.56;5114934;28;20480;-49
2021/04/29 00:07:34;;;;;;;16.00;9.43;;;;;;;15.97;40.38;99970.03;5116079;28;20464;-51
2021/04/29 00:10:01;;;;;;;15.87;8.10;;;;;;;15.50;41.18;99967.03;5114550;28;20570;-50
2021/04/29 00:12:29;;;;;;;22.40;12.63;;;;;;;15.56;40.94;99955.81;5116184;28;20476;-50
2021/04/29 00:14:55;;;;;;;19.97;10.00;;;;;;;15.38;41.27;99962.56;5115187;28;20455;-51
2021/04/29 00:17:22;;;;;;;14.87;8.07;;;;;;;15.90;40.33;99959.53;5116100;28;20485;-50
2021/04/29 00:19:49;;;;;;;14.77;8.50;;;;;;;15.71;40.99;99945.53;5115028;28;20495;-49
2021/04/29 00:22:15;;;;;;;28.40;13.30;;;;;;;15.47;41.37;99952.28;5115903;28;20492;-48
2021/04/29 00:24:42;;;;;;;14.40;8.00;;;;;;;16.10;40.16;99957.97;5116074;28;20861;-49
2021/04/29 00:27:08;;;;;;;15.30;8.53;;;;;;;16.09;40.01;99961.44;5114579;28;20481;-51
2021/04/29 00:29:36;;;;;;;13.87;8.30;;;;;;;15.99;40.33;99965.72;5115470;28;20555;-48
2021/04/29 00:32:02;;;;;;;15.97;8.23;;;;;;;16.00;40.56;99967.47;5114374;28;20488;-51
2021/04/29 00:34:30;;;;;;;23.50;8.57;;;;;;;15.98;40.80;99957.03;5115265;28;20502;-49
2021/04/29 00:36:56;;;;;;;17.30;9.80;;;;;;;15.86;41.69;99957.78;5114766;28;20483;-51
2021/04/29 00:39:23;;;;;;;15.30;8.37;;;;;;;16.02;42.27;99950.13;5115957;28;20453;-48
2021/04/29 00:41:50;;;;;;;14.53;8.73;;;;;;;16.35;42.08;99958.97;5114698;28;20819;-50
2021/04/29 00:44:17;;;;;;;15.67;8.63;;;;;;;16.23;42.35;99954.59;5116156;28;20568;-48
2021/04/29 00:46:47;;;;;;;15.77;9.03;;;;;;;16.14;43.20;99954.50;5115064;28;20477;-47
2021/04/29 00:49:15;;;;;;;16.90;9.30;;;;;;;15.88;43.22;99947.38;5115564;28;20435;-48
2021/04/29 00:51:42;;;;;;;18.70;9.13;;;;;;;16.15;42.53;99945.88;5112597;28;20480;-49
2021/04/29 00:54:08;;;;;;;17.90;9.13;;;;;;;15.48;43.84;99946.22;5095095;28;20485;-48
2021/04/29 00:56:35;;;;;;;15.73;9.17;;;;;;;15.74;43.20;99942.09;5094374;28;20860;-49
2021/04/29 00:59:03;;;;;;;19.23;8.77;;;;;;;15.77;43.28;99936.91;5095702;28;20493;-48
2021/04/29 01:01:34;;;;;;;15.70;9.30;;;;;;;15.58;43.79;99954.13;5099400;28;20783;-48
2021/04/29 01:04:08;;;;;;;16.13;8.90;;;;;;;15.46;44.16;99955.75;5115668;28;20814;-49
2021/04/29 01:06:38;;;;;;;13.23;8.37;;;;;;;15.55;43.58;99946.28;5114803;28;20923;-53
2021/04/29 01:09:09;;;;;;;16.13;8.90;;;;;;;15.65;43.78;99955.91;5115877;28;20891;-52
2021/04/29 01:11:39;;;;;;;17.40;9.20;;;;;;;15.64;43.77;99948.97;5114758;28;20499;-50
2021/04/29 01:14:06;;;;;;;17.50;10.40;;;;;;;15.10;45.81;99962.31;5115953;28;20548;-49
2021/04/29 01:16:34;;;;;;;18.43;9.30;;;;;;;15.29;45.23;99965.09;5114708;28;20498;-48
2021/04/29 01:19:02;;;;;;;17.50;9.70;;;;;;;15.09;46.01;99965.78;5116031;28;20455;-49
2021/04/29 01:21:30;;;;;;;17.20;9.90;;;;;;;15.23;45.97;99964.19;5114346;28;20813;-51
2021/04/29 01:23:59;;;;;;;19.07;9.53;;;;;;;15.30;45.91;99959.03;5115816;28;20897;-48
2021/04/29 01:26:43;;;;;;;17.30;10.20;;;;;;;15.29;45.90;99959.91;5114722;28;20458;-50
2021/04/29 01:29:11;;;;;;;16.83;10.50;;;;;;;14.99;47.38;99954.41;5115824;28;20887;-50
2021/04/29 01:31:39;;;;;;;20.43;10.53;;;;;;;15.21;47.04;99950.31;5114040;28;20500;-48
2021/04/29 01:34:08;;;;;;;17.90;10.13;;;;;;;15.33;46.84;99948.69;5115506;28;20453;-50
2021/04/29 01:36:35;;;;;;;29.80;11.53;;;;;;;15.15;47.92;99950.25;5095722;28;20487;-48
2021/04/29 01:39:05;;;;;;;18.67;10.77;;;;;;;15.10;47.69;99937.22;5095742;28;20435;-49
2021/04/29 01:41:32;;;;;;;18.70;11.97;;;;;;;15.29;47.24;99942.59;5094283;28;20476;-49
2021/04/29 01:44:00;;;;;;;20.50;11.53;;;;;;;15.18;48.00;99932.06;5095549;28;20540;-47
2021/04/29 01:46:27;;;;;;;22.80;10.87;;;;;;;15.31;47.55;99932.19;5093767;28;20474;-49
2021/04/29 01:48:54;;;;;;;18.77;10.80;;;;;;;15.27;47.96;99927.84;5095454;28;20790;-54
2021/04/29 01:51:21;;;;;;;22.63;11.90;;;;;;;15.07;48.52;99916.41;5093870;28;20481;-50
2021/04/29 01:53:48;;;;;;;20.40;11.07;;;;;;;15.17;48.28;99919.94;5095515;28;20507;-50
2021/04/29 01:56:14;;;;;;;20.77;11.27;;;;;;;15.20;48.26;99907.00;5102897;28;20474;-51
2021/04/29 01:58:41;;;;;;;21.13;10.90;;;;;;;15.27;48.06;99909.66;5115947;28;20539;-50
2021/04/29 02:01:08;;;;;;;20.40;11.37;;;;;;;15.27;48.26;99904.47;5114275;28;20451;-49
2021/04/29 02:03:35;;;;;;;22.10;11.60;;;;;;;15.05;48.63;99896.44;5115781;28;20973;-49
2021/04/29 02:06:02;;;;;;;21.50;11.97;;;;;;;15.27;47.75;99894.91;5114047;28;20556;-48
2021/04/29 02:08:28;;;;;;;19.20;11.73;;;;;;;15.20;48.16;99882.75;5115826;28;20428;-49
2021/04/29 02:10:55;;;;;;;20.23;11.30;;;;;;;15.02;48.49;99883.44;5114254;28;20483;-48
2021/04/29 02:13:23;;;;;;;19.77;11.40;;;;;;;15.06;48.38;99873.09;5115778;28;20457;-49
2021/04/29 02:15:52;;;;;;;17.57;11.70;;;;;;;14.94;48.61;99878.19;5114367;28;20519;-48
2021/04/29 02:18:20;;;;;;;18.03;11.30;;;;;;;14.65;49.12;99871.78;5115498;28;20455;-48
2021/04/29 02:20:50;;;;;;;17.93;10.93;;;;;;;15.03;48.01;99867.84;5113584;28;20451;-49
2021/04/29 02:23:19;;;;;;;20.93;12.70;;;;;;;15.15;47.64;99864.53;5115836;28;20535;-52
2021/04/29 02:25:47;;;;;;;21.50;12.17;;;;;;;14.93;48.03;99855.66;5114756;28;20483;-49
2021/04/29 02:28:14;;;;;;;21.50;11.37;;;;;;;14.88;48.47;99858.22;5115404;28;20513;-49
2021/04/29 02:30:42;;;;;;;17.20;11.70;;;;;;;14.91;48.22;99852.19;5113990;28;20571;-48
2021/04/29 02:33:09;;;;;;;18.83;13.00;;;;;;;15.11;48.04;99842.84;5115255;28;20456;-48
2021/04/29 02:35:36;;;;;;;21.83;12.43;;;;;;;14.97;48.21;99844.44;5114413;28;20483;-49
2021/04/29 02:38:03;;;;;;;21.97;12.53;;;;;;;14.77;48.44;99852.03;5115547;28;20459;-50
2021/04/29 02:40:30;;;;;;;24.60;11.97;;;;;;;15.03;47.85;99841.03;5114190;28;20448;-48
2021/04/29 02:43:03;;;;;;;20.00;11.43;;;;;;;15.24;47.12;99841.19;5115425;28;20566;-51
2021/04/29 02:45:30;;;;;;;23.23;12.90;;;;;;;14.96;48.09;99850.47;5113966;28;20447;-49
2021/04/29 02:47:57;;;;;;;24.73;12.77;;;;;;;14.98;47.82;99843.59;5115589;28;20423;-50
2021/04/29 02:50:25;;;;;;;23.40;12.20;;;;;;;14.78;48.08;99840.81;5113920;28;20538;-47
2021/04/29 02:52:53;;;;;;;18.30;11.50;;;;;;;15.07;47.34;99838.47;5114912;28;20490;-49
2021/04/29 02:55:21;;;;;;;20.90;12.40;;;;;;;14.79;47.89;99837.34;5112440;28;20556;-49
2021/04/29 02:57:48;;;;;;;21.03;11.87;;;;;;;14.79;47.96;99832.16;5115384;28;20470;-49
2021/04/29 03:00:17;;;;;;;21.70;12.90;;;;;;;14.87;48.11;99833.09;5117188;28;20472;-47
2021/04/29 03:02:44;;;;;;;23.53;12.83;;;;;;;14.85;48.09;99838.28;5118975;28;20479;-50
2021/04/29 03:05:13;;;;;;;19.93;10.87;;;;;;;14.75;47.68;99835.56;5118209;28;20516;-50
2021/04/29 03:07:40;;;;;;;21.00;11.80;;;;;;;14.88;46.99;99827.06;5119108;28;20451;-48
2021/04/29 03:10:10;;;;;;;21.80;12.27;;;;;;;14.96;47.29;99835.78;5117723;28;20545;-49
2021/04/29 03:12:37;;;;;;;18.00;12.13;;;;;;;14.76;47.23;99826.94;5118787;28;21021;-50
2021/04/29 03:15:05;;;;;;;19.30;11.50;;;;;;;15.01;46.68;99819.38;5117795;28;20463;-50
2021/04/29 03:17:31;;;;;;;24.50;12.40;;;;;;;14.89;46.68;99812.34;5118728;28;20886;-47
2021/04/29 03:19:58;;;;;;;18.40;12.10;;;;;;;14.84;46.71;99822.69;5117649;28;20464;-51
2021/04/29 03:22:25;;;;;;;19.10;11.80;;;;;;;15.14;46.36;99813.41;5118488;28;20455;-48
2021/04/29 03:24:51;;;;;;;22.70;12.60;;;;;;;14.81;46.79;99814.84;5117787;28;20487;-50
2021/04/29 03:27:23;;;;;;;22.87;12.57;;;;;;;14.88;46.32;99811.47;5118382;28;20492;-50
2021/04/29 03:29:49;;;;;;;31.23;16.27;;;;;;;15.12;45.85;99797.81;5117463;28;20475;-51
2021/04/29 03:32:16;;;;;;;24.43;11.67;;;;;;;14.86;46.30;99807.97;5117916;28;20484;-50
2021/04/29 03:34:43;;;;;;;20.37;11.80;;;;;;;14.92;46.26;99813.22;5118613;28;20463;-52
2021/04/29 03:37:10;;;;;;;20.80;11.70;;;;;;;15.23;45.36;99810.88;5117902;28;20500;-49
2021/04/29 03:39:36;;;;;;;18.70;11.63;;;;;;;15.22;45.65;99819.53;5117951;28;20787;-49
2021/04/29 03:42:06;;;;;;;25.03;12.40;;;;;;;15.36;45.56;99819.66;5117351;28;20487;-49
2021/04/29 03:44:35;;;;;;;20.33;12.50;;;;;;;15.38;45.00;99817.91;5118074;28;20891;-52
2021/04/29 03:47:02;;;;;;;20.40;12.10;;;;;;;15.45;45.12;99810.16;5117121;28;20476;-53
2021/04/29 03:49:29;;;;;;;22.80;12.87;;;;;;;15.10;45.94;99812.53;5118176;28;20509;-48
2021/04/29 03:51:55;;;;;;;18.90;11.87;;;;;;;14.78;47.08;99809.63;5116299;28;20525;-49
2021/04/29 03:54:23;;;;;;;20.57;12.00;;;;;;;15.07;46.37;99804.69;5117920;28;20459;-49
2021/04/29 03:56:50;;;;;;;19.20;12.50;;;;;;;15.17;46.18;99797.00;5117168;28;20880;-50
2021/04/29 03:59:16;;;;;;;25.43;12.10;;;;;;;15.14;45.98;99800.44;5118206;28;20541;-49
2021/04/29 04:01:44;;;;;;;23.50;14.30;;;;;;;15.16;46.14;99801.31;5116333;28;20477;-50
2021/04/29 04:04:11;;;;;;;25.87;14.13;;;;;;;15.25;45.90;99806.59;5117836;28;20455;-48
2021/04/29 04:06:37;;;;;;;22.67;12.40;;;;;;;15.09;46.28;99804.72;5116586;28;20490;-50
2021/04/29 04:09:04;;;;;;;25.73;14.17;;;;;;;14.80;47.45;99803.59;5117601;28;20431;-48
2021/04/29 04:11:31;;;;;;;22.40;13.57;;;;;;;15.36;45.93;99813.56;5115765;27;20475;-50
2021/04/29 04:13:57;;;;;;;22.73;13.50;;;;;;;15.52;45.49;99810.22;5117842;28;20479;-48
2021/04/29 04:16:24;;;;;;;21.47;13.10;;;;;;;15.05;46.56;99809.03;5115865;28;20849;-49
2021/04/29 04:18:52;;;;;;;23.30;13.30;;;;;;;15.18;46.27;99799.56;5117607;28;20501;-48
2021/04/29 04:21:18;;;;;;;24.90;14.33;;;;;;;15.46;45.82;99812.78;5116038;28;20770;-49
2021/04/29 04:23:45;;;;;;;23.07;13.70;;;;;;;15.11;46.44;99798.69;5117414;28;20495;-49
2021/04/29 04:26:11;;;;;;;24.37;15.37;;;;;;;15.27;46.25;99806.56;5116518;28;20934;-49
2021/04/29 04:28:38;;;;;;;19.53;13.33;;;;;;;15.08;46.95;99795.19;5117493;28;20464;-51
2021/04/29 04:31:05;;;;;;;19.73;12.93;;;;;;;14.61;48.13;99797.31;5115864;28;20493;-50
2021/04/29 04:33:31;;;;;;;23.10;13.47;;;;;;;15.16;46.90;99796.09;5117209;28;20744;-53
2021/04/29 04:35:59;;;;;;;21.87;13.13;;;;;;;14.45;48.82;99796.31;5115987;28;20476;-47
2021/04/29 04:38:25;;;;;;;22.33;14.43;;;;;;;15.03;47.36;99800.31;5117097;28;20457;-48
2021/04/29 04:40:52;;;;;;;22.93;14.57;;;;;;;14.90;47.73;99798.47;5115855;28;20948;-48
2021/04/29 04:43:18;;;;;;;19.57;13.10;;;;;;;14.92;47.68;99799.38;5117231;28;20466;-49
2021/04/29 04:45:45;;;;;;;22.30;13.07;;;;;;;14.71;48.53;99793.09;5115816;28;20476;-49
2021/04/29 04:48:12;;;;;;;25.87;14.30;;;;;;;14.83;48.59;99801.03;5116904;28;20464;-48
2021/04/29 04:50:39;;;;;;;22.80;14.53;;;;;;;14.97;48.12;99789.88;5115598;28;20485;-47
2021/04/29 04:53:06;;;;;;;23.37;14.53;;;;;;;14.85;48.53;99791.53;5117114;28;20457;-49
2021/04/29 04:55:34;;;;;;;23.57;14.57;;;;;;;14.96;48.42;99794.22;5116330;28;20483;-52
2021/04/29 04:58:00;;;;;;;19.40;13.60;;;;;;;15.00;48.12;99795.13;5116571;28;20468;-51
2021/04/29 05:00:27;;;;;;;25.40;15.90;;;;;;;14.84;48.64;99800.19;5115571;28;20477;-49
2021/04/29 05:02:56;;;;;;;25.27;14.50;;;;;;;14.94;48.53;99803.75;5116688;28;20536;-52
2021/04/29 05:05:23;;;;;;;21.23;14.13;;;;;;;15.11;48.22;99803.88;5115615;28;20858;-51
2021/04/29 05:07:50;;;;;;;25.67;15.77;;;;;;;14.97;48.48;99805.47;5116652;28;20470;-51
2021/04/29 05:10:18;;;;;;;26.83;14.40;;;;;;;14.97;48.74;99806.34;5115217;28;20961;-50
2021/04/29 05:12:45;;;;;;;30.40;16.57;;;;;;;15.07;48.41;99807.28;5116512;28;20825;-49
2021/04/29 05:15:11;;;;;;;25.43;16.30;;;;;;;14.96;48.59;99811.53;5115382;28;20558;-50
2021/04/29 05:17:38;;;;;;;23.67;15.13;;;;;;;15.30;47.97;99808.31;5116404;28;20456;-47
2021/04/29 05:20:06;;;;;;;30.20;16.10;;;;;;;15.58;47.34;99809.38;5114680;28;20946;-51
2021/04/29 05:22:33;;;;;;;24.87;15.37;;;;;;;15.55;47.65;99808.50;5116262;28;20483;-48
2021/04/29 05:24:59;;;;;;;39.40;21.77;;;;;;;15.34;47.82;99804.91;5115745;28;20494;-51
2021/04/29 05:27:27;;;;;;;26.80;16.37;;;;;;;15.65;47.35;99799.91;5116208;28;20439;-51
2021/04/29 05:29:54;;;;;;;28.60;17.20;;;;;;;15.51;47.63;99797.22;5115026;28;20450;-53
2021/04/29 05:32:21;;;;;;;32.23;18.47;;;;;;;15.42;47.86;99803.22;5115482;28;20905;-47
2021/04/29 05:34:47;;;;;;;30.57;17.87;;;;;;;15.22;48.37;99797.88;5115065;28;20513;-50
2021/04/29 05:37:14;;;;;;;23.63;15.10;;;;;;;15.48;47.75;99800.66;5116092;28;20571;-47
2021/04/29 05:39:40;;;;;;;23.17;15.30;;;;;;;15.62;47.21;99797.25;5115722;28;20469;-50
2021/04/29 05:42:07;;;;;;;26.30;16.23;;;;;;;15.36;48.14;99797.97;5115154;28;20439;-51
2021/04/29 05:44:35;;;;;;;24.40;15.90;;;;;;;15.57;47.87;99801.56;5115939;28;20750;-50
2021/04/29 05:47:01;;;;;;;25.07;16.30;;;;;;;15.53;48.16;99801.56;5114784;28;20525;-51
2021/04/29 05:49:29;;;;;;;26.50;16.77;;;;;;;15.44;48.02;99801.47;5116109;28;20466;-50
2021/04/29 05:51:56;;;;;;;52.20;29.53;;;;;;;15.48;48.43;99792.84;5114308;28;20923;-49
2021/04/29 05:54:22;;;;;;;88.33;46.63;;;;;;;15.58;48.44;99795.53;5115654;28;20463;-49
2021/04/29 05:56:49;;;;;;;100.27;50.43;;;;;;;15.93;47.92;99792.25;5114909;28;20477;-50
2021/04/29 05:59:15;;;;;;;51.40;26.30;;;;;;;15.84;47.82;99794.78;5115525;28;20767;-49
2021/04/29 06:01:43;;;;;;;47.33;25.27;;;;;;;15.70;48.05;99797.31;5113892;28;20548;-49
2021/04/29 06:04:09;;;;;;;52.90;29.73;;;;;;;15.56;48.72;99798.13;5115480;28;20883;-49
2021/04/29 06:06:36;;;;;;;42.03;24.30;;;;;;;15.85;47.80;99797.38;5114153;28;20478;-48
2021/04/29 06:09:03;;;;;;;40.90;22.90;;;;;;;15.97;47.73;99800.94;5115737;28;20469;-49
2021/04/29 06:11:30;;;;;;;37.53;22.50;;;;;;;15.82;48.08;99799.09;5114555;28;20452;-50
2021/04/29 06:13:56;;;;;;;36.20;21.00;;;;;;;15.37;49.71;99797.13;5115601;28;20434;-48
2021/04/29 06:16:23;;;;;;;28.50;18.50;;;;;;;15.50;49.40;99796.31;5114405;28;20921;-52
2021/04/29 06:18:51;;;;;;;30.30;19.40;;;;;;;15.97;48.30;99800.94;5115534;28;20457;-50
2021/04/29 06:21:18;;;;;;;29.63;18.80;;;;;;;15.51;49.55;99807.59;5114122;28;20469;-47
2021/04/29 06:23:44;;;;;;;31.70;19.60;;;;;;;15.85;48.84;99806.94;5115491;28;20467;-47
2021/04/29 06:26:11;;;;;;;37.17;21.67;;;;;;;15.74;49.45;99809.47;5114701;28;20487;-51
2021/04/29 06:28:38;;;;;;;30.07;18.07;;;;;;;15.42;50.04;99803.22;5115382;28;20455;-48
2021/04/29 06:31:04;;;;;;;27.50;18.10;;;;;;;15.55;50.23;99811.97;5114163;28;20483;-51
2021/04/29 06:33:31;;;;;;;29.40;18.77;;;;;;;15.83;49.70;99811.25;5116817;28;20457;-49
2021/04/29 06:35:58;;;;;;;26.43;18.10;;;;;;;15.57;50.11;99812.84;5118641;28;20755;-47
2021/04/29 06:38:25;;;;;;;25.20;17.17;;;;;;;15.71;49.82;99815.53;5119370;28;20556;-48
2021/04/29 06:40:52;;;;;;;27.17;17.73;;;;;;;15.87;49.42;99820.81;5118234;28;20468;-48
2021/04/29 06:43:18;;;;;;;32.80;19.80;;;;;;;15.70;49.81;99824.19;5119370;28;20455;-50
2021/04/29 06:45:45;;;;;;;38.40;19.70;;;;;;;15.38;50.45;99823.13;5118481;28;20481;-51
2021/04/29 06:48:12;;;;;;;27.83;17.40;;;;;;;15.57;50.23;99832.75;5119327;28;20467;-49
2021/04/29 06:50:39;;;;;;;28.63;17.83;;;;;;;15.47;50.87;99827.50;5117972;28;20771;-50
2021/04/29 06:53:06;;;;;;;28.43;19.00;;;;;;;15.71;50.31;99825.94;5119255;28;20456;-49
2021/04/29 06:55:33;;;;;;;27.80;17.33;;;;;;;15.95;49.60;99829.56;5117815;28;20464;-51
2021/04/29 06:58:00;;;;;;;28.90;19.67;;;;;;;16.31;48.42;99833.16;5119105;28;20875;-47
2021/04/29 07:00:26;;;;;;;30.63;20.70;;;;;;;16.19;48.61;99825.31;5117728;28;20475;-47
2021/04/29 07:02:55;;;;;;;31.97;19.40;;;;;;;15.99;49.20;99831.31;5119064;28;20919;-49
2021/04/29 07:05:23;;;;;;;25.77;18.47;;;;;;;15.74;49.76;99831.13;5118081;28;20495;-49
2021/04/29 07:07:50;;;;;;;31.20;19.00;;;;;;;15.77;50.12;99831.16;5119009;28;20498;-49
2021/04/29 07:10:18;;;;;;;28.27;19.43;;;;;;;15.44;50.96;99834.41;5117659;28;20775;-48
2021/04/29 07:13:04;;;;;;;34.07;19.37;;;;;;;15.39;50.74;99824.84;5118889;28;20512;-48
2021/04/29 07:15:30;;;;;;;32.00;20.37;;;;;;;15.14;51.31;99829.00;5117867;28;20469;-50
2021/04/29 07:17:58;;;;;;;33.30;19.63;;;;;;;15.40;50.74;99820.53;5118804;28;20461;-50
2021/04/29 07:20:24;;;;;;;28.97;19.77;;;;;;;15.42;50.71;99816.22;5117226;28;20469;-52
2021/04/29 07:22:51;;;;;;;32.10;19.50;;;;;;;15.29;51.28;99817.88;5118563;28;20828;-53
2021/04/29 07:25:18;;;;;;;28.60;19.40;;;;;;;15.15;51.91;99825.56;5117687;28;20473;-49
2021/04/29 07:27:45;;;;;;;29.10;18.80;;;;;;;15.47;51.00;99818.84;5118611;28;20560;-49
2021/04/29 07:30:12;;;;;;;31.60;21.03;;;;;;;15.50;51.24;99813.66;5105068;28;20475;-47
2021/04/29 07:32:39;;;;;;;29.80;20.00;;;;;;;15.06;52.50;99822.84;5097313;28;20484;-48
2021/04/29 07:35:07;;;;;;;29.60;19.97;;;;;;;15.13;52.19;99827.28;5114730;28;20503;-49
2021/04/29 07:37:34;;;;;;;29.37;19.10;;;;;;;14.78;53.42;99822.63;5111009;28;20882;-49
2021/04/29 07:40:00;;;;;;;30.27;19.93;;;;;;;15.41;51.82;99821.38;5116926;28;20461;-48
2021/04/29 07:42:28;;;;;;;36.87;24.23;;;;;;;15.25;52.49;99816.97;5117958;28;20476;-49
2021/04/29 07:44:54;;;;;;;43.73;26.23;;;;;;;15.37;52.35;99817.91;5116023;28;20465;-49
2021/04/29 07:47:21;;;;;;;34.37;20.77;;;;;;;15.12;52.95;99813.41;5117876;28;20516;-51
2021/04/29 07:49:48;;;;;;;34.70;22.00;;;;;;;14.97;53.00;99805.47;5116464;28;20424;-48
2021/04/29 07:52:15;;;;;;;36.50;23.23;;;;;;;14.92;52.95;99800.25;5117918;28;20516;-49
2021/04/29 07:54:41;;;;;;;37.33;21.53;;;;;;;14.93;53.17;99803.72;5117676;28;20488;-49
2021/04/29 07:57:08;;;;;;;36.53;23.47;;;;;;;15.20;52.10;99794.41;5117433;28;20463;-47
2021/04/29 07:59:36;;;;;;;34.30;20.97;;;;;;;15.04;53.20;99796.00;5117499;28;20457;-48
2021/04/29 08:02:02;;;;;;;37.07;22.10;;;;;;;15.23;52.60;99797.88;5116631;28;20480;-48
2021/04/29 08:04:29;;;;;;;35.17;22.00;;;;;;;15.11;52.74;99790.00;5117388;28;20456;-51
2021/04/29 08:06:56;;;;;;;34.20;21.27;;;;;;;15.29;52.40;99789.28;5116307;28;20493;-49
2021/04/29 08:09:23;;;;;;;32.03;20.60;;;;;;;15.41;52.19;99791.09;5117777;28;20460;-48
2021/04/29 08:11:50;;;;;;;32.30;21.30;;;;;;;15.41;51.94;99787.59;5116326;28;20569;-49
2021/04/29 08:14:16;;;;;;;31.93;21.03;;;;;;;15.32;52.12;99788.41;5117527;28;20479;-49
2021/04/29 08:16:46;;;;;;;34.83;21.57;;;;;;;15.48;51.86;99792.00;5116286;28;20473;-48
2021/04/29 08:19:13;;;;;;;36.20;20.20;;;;;;;15.07;53.32;99790.84;5117809;28;20475;-48
2021/04/29 08:21:45;;;;;;;41.43;22.00;;;;;;;15.32;53.42;99798.81;5116073;28;20515;-47
2021/04/29 08:24:11;;;;;;;32.67;21.40;;;;;;;15.36;53.31;99803.19;5117460;28;20457;-49
2021/04/29 08:26:38;;;;;;;39.80;23.00;;;;;;;15.17;54.28;99799.59;5116352;28;20968;-48
2021/04/29 08:29:05;;;;;;;35.80;23.70;;;;;;;15.25;53.78;99804.00;5116969;28;20457;-50
2021/04/29 08:31:32;;;;;;;37.73;23.97;;;;;;;15.18;53.92;99794.38;5115548;28;20902;-51
2021/04/29 08:33:59;;;;;;;40.57;24.90;;;;;;;15.30;53.98;99803.13;5117362;28;20463;-50
2021/04/29 08:36:29;;;;;;;37.40;23.47;;;;;;;15.67;52.96;99808.56;5117081;28;20771;-50
2021/04/29 08:38:56;;;;;;;41.00;23.70;;;;;;;15.65;52.97;99803.34;5117191;28;20457;-49
2021/04/29 08:41:23;;;;;;;36.97;23.80;;;;;;;15.77;52.74;99802.56;5115499;28;20456;-48
2021/04/29 08:43:50;;;;;;;43.33;25.90;;;;;;;15.98;52.48;99794.88;5100738;28;20452;-49
2021/04/29 08:46:16;;;;;;;39.93;25.37;;;;;;;15.63;53.79;99804.19;5104266;28;20507;-49
2021/04/29 08:48:43;;;;;;;38.00;24.03;;;;;;;15.75;53.32;99800.81;5116785;28;20882;-50
2021/04/29 08:51:11;;;;;;;36.03;23.20;;;;;;;15.47;53.42;99800.63;5115102;28;20522;-47
2021/04/29 08:53:37;;;;;;;35.33;24.00;;;;;;;15.27;54.11;99805.72;5116811;28;20453;-49
2021/04/29 08:56:04;;;;;;;35.00;23.30;;;;;;;15.38;53.81;99801.44;5115081;28;20537;-50
2021/04/29 08:58:31;;;;;;;38.00;24.03;;;;;;;15.82;52.81;99804.31;5116388;28;20431;-50
2021/04/29 09:00:59;;;;;;;33.67;23.30;;;;;;;15.67;53.13;99808.56;5114937;28;20560;-48
2021/04/29 09:03:30;;;;;;;35.40;23.70;;;;;;;15.80;53.10;99810.38;5112113;28;20512;-48
2021/04/29 09:05:58;;;;;;;35.60;22.37;;;;;;;15.74;53.10;99810.34;5113065;28;20488;-52
2021/04/29 09:08:28;;;;;;;35.97;23.53;;;;;;;15.57;53.60;99806.75;5116530;28;20543;-48
2021/04/29 09:11:06;;;;;;;37.30;22.47;;;;;;;15.78;53.19;99806.91;5113579;28;20460;-49
2021/04/29 09:13:33;;;;;;;40.07;25.37;;;;;;;16.09;53.14;99805.34;5116605;28;20491;-49
2021/04/29 09:16:08;;;;;;;38.20;24.07;;;;;;;16.34;53.31;99806.28;5114544;28;20477;-51
2021/04/29 09:18:35;;;;;;;38.13;24.20;;;;;;;15.99;53.81;99813.09;5114160;28;20456;-54
2021/04/29 09:21:06;;;;;;;39.67;24.40;;;;;;;15.78;54.09;99800.81;5109600;27;20465;-50
2021/04/29 09:23:35;;;;;;;57.37;31.80;;;;;;;15.96;54.24;99809.59;5113513;28;20880;-50
2021/04/29 09:26:05;;;;;;;41.90;26.50;;;;;;;15.90;53.69;99810.44;5114457;28;20504;-48
2021/04/29 09:28:36;;;;;;;41.13;26.53;;;;;;;15.89;53.63;99806.94;5115005;28;20556;-53
2021/04/29 09:31:04;;;;;;;42.77;26.13;;;;;;;15.66;54.85;99812.03;5114153;28;20485;-50
2021/04/29 09:33:32;;;;;;;46.07;29.40;;;;;;;15.15;56.42;99807.38;5115574;28;20467;-48
2021/04/29 09:35:58;;;;;;;42.63;26.53;;;;;;;15.71;54.56;99805.13;5113181;28;20480;-51
2021/04/29 09:38:31;;;;;;;39.27;25.63;;;;;;;16.19;53.98;99801.88;5113937;28;20453;-50
2021/04/29 09:40:59;;;;;;;44.90;26.67;;;;;;;15.53;55.71;99804.16;5110195;28;20469;-48
2021/04/29 09:43:26;;;;;;;39.67;24.60;;;;;;;15.22;56.03;99800.47;5115714;28;20540;-47
2021/04/29 09:45:58;;;;;;;42.40;27.27;;;;;;;15.77;55.79;99796.47;5113878;28;20477;-51
2021/04/29 09:48:34;;;;;;;40.57;25.47;;;;;;;15.75;54.74;99806.88;5115318;28;20478;-50
2021/04/29 09:51:00;;;;;;;39.40;24.87;;;;;;;15.67;55.45;99803.38;5113044;28;20494;-51
2021/04/29 09:53:39;;;;;;;41.40;26.40;;;;;;;15.90;55.36;99800.03;5115292;28;20763;-49
2021/04/29 09:56:09;;;;;;;43.87;23.87;;;;;;;15.39;56.24;99793.66;5114130;28;20475;-52
2021/04/29 09:58:36;;;;;;;44.73;26.37;;;;;;;15.51;56.13;99797.22;5115319;28;20452;-49
2021/04/29 10:01:04;;;;;;;35.63;22.00;;;;;;;14.79;57.18;99795.81;5113591;28;20476;-49
2021/04/29 10:03:32;;;;;;;40.77;24.23;;;;;;;15.24;57.14;99802.22;5115273;28;20463;-49
2021/04/29 10:05:59;;;;;;;42.17;27.10;;;;;;;15.47;56.42;99796.31;5112732;28;20572;-49
2021/04/29 10:08:27;;;;;;;51.40;27.87;;;;;;;15.89;56.24;99800.91;5114458;28;20457;-48
2021/04/29 10:10:56;;;;;;;44.50;25.10;;;;;;;16.17;55.12;99803.63;5106676;28;20587;-50
2021/04/29 10:13:30;;;;;;;41.10;25.80;;;;;;;16.10;55.19;99801.88;5102826;28;20463;-49
2021/04/29 10:15:57;;;;;;;42.43;26.77;;;;;;;16.43;54.54;99790.69;5114376;28;20487;-53
2021/04/29 10:18:25;;;;;;;42.33;24.90;;;;;;;16.85;54.04;99788.16;5115310;28;20456;-49
2021/04/29 10:20:52;;;;;;;47.87;27.77;;;;;;;16.53;54.41;99791.59;5113224;28;20564;-48
2021/04/29 10:23:20;;;;;;;40.10;26.10;;;;;;;16.31;55.40;99793.28;5114988;28;20452;-50
2021/04/29 10:25:51;;;;;;;46.20;28.13;;;;;;;16.90;53.79;99787.25;5113794;28;20965;-51
2021/04/29 10:28:32;;;;;;;36.23;24.63;;;;;;;15.86;54.77;99799.16;5115095;28;20544;-50
2021/04/29 10:30:59;;;;;;;34.97;22.20;;;;;;;15.70;55.99;99803.41;5113709;28;20731;-50
2021/04/29 10:33:26;;;;;;;32.63;21.53;;;;;;;16.17;55.05;99801.03;5115047;28;20481;-47
2021/04/29 10:35:55;;;;;;;34.57;22.40;;;;;;;15.95;55.03;99803.56;5113947;28;20547;-48
2021/04/29 10:38:29;;;;;;;33.33;22.27;;;;;;;15.91;55.41;99796.56;5110997;28;20462;-49
2021/04/29 10:40:57;;;;;;;33.73;21.77;;;;;;;16.40;53.64;99800.25;5092828;28;20569;-51
2021/04/29 10:43:33;;;;;;;31.00;20.80;;;;;;;15.94;54.33;99801.78;5094906;28;20450;-49
2021/04/29 10:46:03;;;;;;;30.93;20.30;;;;;;;15.60;55.30;99801.59;5093271;28;20481;-49
2021/04/29 10:48:30;;;;;;;34.57;22.67;;;;;;;15.83;55.07;99793.06;5111108;28;20841;-50
2021/04/29 10:51:08;;;;;;;43.70;23.47;;;;;;;16.28;53.67;99795.84;5113613;28;20473;-52
2021/04/29 10:53:35;;;;;;;32.60;21.83;;;;;;;15.78;55.20;99804.31;5114828;28;20488;-50
2021/04/29 10:56:04;;;;;;;37.47;21.87;;;;;;;16.00;54.70;99799.22;5096086;28;20509;-52
2021/04/29 10:58:33;;;;;;;37.60;21.47;;;;;;;15.65;55.20;99802.50;5094580;28;20468;-52
2021/04/29 11:01:02;;;;;;;35.77;22.10;;;;;;;15.66;55.49;99792.09;5106311;28;20556;-52
2021/04/29 11:03:31;;;;;;;33.77;21.20;;;;;;;16.09;54.36;99798.38;5114942;28;20451;-53
2021/04/29 11:06:09;;;;;;;34.20;22.23;;;;;;;15.31;55.49;99794.47;5113149;28;20951;-49
2021/04/29 11:08:37;;;;;;;30.93;20.27;;;;;;;15.58;54.91;99800.72;5114395;28;20454;-53
2021/04/29 11:11:04;;;;;;;32.00;20.07;;;;;;;15.41;55.06;99801.47;5113262;28;20504;-50
2021/04/29 11:13:32;;;;;;;30.60;18.50;;;;;;;15.21;54.83;99794.41;5114648;28;20876;-50
2021/04/29 11:16:01;;;;;;;31.87;20.30;;;;;;;15.54;53.86;99797.25;5113596;28;20475;-48
2021/04/29 11:18:27;;;;;;;33.43;21.20;;;;;;;16.08;53.11;99800.97;5114873;28;20521;-50